createdAt,value
2019-04-26T00:04:28.817Z,1.87
2019-04-26T00:09:33.845Z,1.67
2019-04-26T00:14:38.926Z,1.80
2019-04-26T00:19:42.358Z,2.58
2019-04-26T00:24:45.959Z,2.50
2019-04-26T00:29:49.389Z,2.20
2019-04-26T00:34:52.809Z,1.98
2019-04-26T00:39:56.239Z,2.35
2019-04-26T00:44:59.747Z,2.22
2019-04-26T00:50:03.976Z,2.20
2019-04-26T00:55:08.497Z,2.30
2019-04-26T01:00:15.182Z,2.45
2019-04-26T01:05:19.377Z,1.95
2019-04-26T01:10:23.755Z,2.02
2019-04-26T01:15:27.284Z,2.20
2019-04-26T01:20:32.777Z,2.15
2019-04-26T01:25:42.097Z,1.95
2019-04-26T01:30:45.728Z,2.10
2019-04-26T01:35:58.960Z,1.90
2019-04-26T01:41:05.121Z,1.72
2019-04-26T01:46:29.565Z,2.33
2019-04-26T01:51:44.645Z,2.10
2019-04-26T01:56:51.164Z,2.17
2019-04-26T02:02:02.229Z,1.98
2019-04-26T02:07:05.863Z,2.05
2019-04-26T02:12:09.294Z,2.05
2019-04-26T02:17:12.719Z,2.12
2019-04-26T02:22:34.166Z,2.15
2019-04-26T02:27:37.719Z,2.22
2019-04-26T02:32:41.218Z,2.37
2019-04-26T02:37:44.980Z,2.25
2019-04-26T02:42:49.660Z,2.00
2019-04-26T02:47:57.569Z,2.10
2019-04-26T02:53:15.924Z,1.95
2019-04-26T02:58:21.857Z,2.47
2019-04-26T03:03:26.830Z,2.12
2019-04-26T03:08:33.919Z,2.12
2019-04-26T03:13:43.686Z,2.10
2019-04-26T03:19:00.525Z,2.37
2019-04-26T03:24:07.002Z,2.50
2019-04-26T03:29:19.173Z,2.33
2019-04-26T03:34:39.300Z,2.90
2019-04-26T03:40:23.157Z,2.42
2019-04-26T03:45:38.968Z,2.62
2019-04-26T03:50:51.908Z,2.42
2019-04-26T03:56:09.529Z,2.30
2019-04-26T04:01:15.139Z,2.47
2019-04-26T04:06:23.448Z,2.20
2019-04-26T04:11:32.956Z,2.33
2019-04-26T04:16:55.905Z,2.00
2019-04-26T04:22:11.047Z,1.82
2019-04-26T04:27:23.185Z,1.98
2019-04-26T04:33:02.432Z,2.02
2019-04-26T04:38:27.962Z,2.20
2019-04-26T04:43:36.028Z,2.47
2019-04-26T04:49:21.385Z,2.25
2019-04-26T04:54:33.713Z,2.05
2019-04-26T04:59:49.000Z,1.87
2019-04-26T05:05:26.640Z,2.20
2019-04-26T05:10:38.863Z,2.12
2019-04-26T05:15:52.838Z,2.30
2019-04-26T05:21:08.054Z,2.02
2019-04-26T05:26:43.024Z,2.20
2019-04-26T05:31:56.257Z,1.92
2019-04-26T05:37:08.217Z,2.12
2019-04-26T05:42:24.931Z,2.00
2019-04-26T05:48:01.490Z,2.20
2019-04-26T05:53:09.614Z,2.12
2019-04-26T05:58:24.854Z,2.50
2019-04-26T06:03:54.380Z,2.20
2019-04-26T06:09:27.016Z,2.40
2019-04-26T06:14:57.369Z,2.27
2019-04-26T06:20:23.606Z,2.50
2019-04-26T06:25:40.451Z,2.50
2019-04-26T06:30:49.787Z,2.98
2019-04-26T06:35:57.266Z,3.15
2019-04-26T06:41:28.006Z,3.10
2019-04-26T06:46:53.402Z,2.90
2019-04-26T06:52:02.634Z,3.22
2019-04-26T06:57:28.385Z,3.02
2019-04-26T07:02:34.822Z,3.27
2019-04-26T07:07:59.992Z,3.40
2019-04-26T07:13:39.436Z,3.45
2019-04-26T07:18:50.984Z,3.45
2019-04-26T07:24:32.048Z,3.62
2019-04-26T07:30:05.072Z,3.40
2019-04-26T07:35:23.242Z,3.30
2019-04-26T07:40:36.977Z,2.98
2019-04-26T07:46:12.680Z,2.90
2019-04-26T07:51:19.073Z,2.72
2019-04-26T07:56:25.517Z,3.00
2019-04-26T08:01:51.420Z,2.90
2019-04-26T08:07:06.849Z,2.47
2019-04-26T08:12:12.820Z,3.05
2019-04-26T08:17:29.287Z,2.90
2019-04-26T08:22:34.765Z,2.65
2019-04-26T08:27:40.796Z,2.60
2019-04-26T08:32:53.080Z,2.65
2019-04-26T08:37:59.516Z,2.85
2019-04-26T08:43:22.969Z,2.90
2019-04-26T08:53:35.790Z,2.52
2019-04-26T08:58:42.228Z,2.80
2019-04-26T09:03:50.318Z,2.80
2019-04-26T09:08:55.546Z,2.55
2019-04-26T09:14:02.213Z,2.58
2019-04-26T09:19:05.684Z,2.52
2019-04-26T09:24:10.731Z,2.35
2019-04-26T09:29:34.165Z,2.40
2019-04-26T09:39:43.432Z,2.50
2019-04-26T09:44:56.812Z,2.77
2019-04-26T09:50:11.174Z,3.00
2019-04-26T09:55:15.657Z,2.87
2019-04-26T10:00:24.322Z,2.72
2019-04-26T10:05:27.779Z,2.40
2019-04-26T10:10:35.405Z,2.65
2019-04-26T10:15:43.679Z,2.77
2019-04-26T10:20:47.069Z,2.45
2019-04-26T10:25:51.824Z,2.50
2019-04-26T10:30:55.812Z,3.15
2019-04-26T10:35:59.210Z,2.75
2019-04-26T10:41:02.673Z,2.85
2019-04-26T10:46:07.037Z,2.83
2019-04-26T10:51:11.068Z,2.98
2019-04-26T10:56:24.271Z,3.10
2019-04-26T11:01:26.990Z,3.33
2019-04-26T11:06:30.607Z,2.92
2019-04-26T11:11:34.745Z,3.15
2019-04-26T11:16:41.154Z,3.35
2019-04-26T11:21:43.241Z,3.33
2019-04-26T11:26:46.633Z,3.20
2019-04-26T11:31:50.027Z,3.22
2019-04-26T11:36:53.431Z,2.87
2019-04-26T11:41:56.807Z,2.55
2019-04-26T11:47:03.259Z,2.30
2019-04-26T11:52:05.680Z,2.40
2019-04-26T11:57:12.015Z,2.35
2019-04-26T12:02:16.117Z,2.10
2019-04-26T12:07:23.595Z,2.20
2019-04-26T12:12:26.987Z,2.30
2019-04-26T12:17:31.155Z,1.80
2019-04-26T12:22:35.489Z,1.85
2019-04-26T12:27:39.200Z,1.30
2019-04-26T12:32:42.588Z,1.40
2019-04-26T12:37:46.225Z,1.40
2019-04-26T12:42:49.637Z,1.40
2019-04-26T12:47:54.660Z,1.50
2019-04-26T12:52:58.048Z,1.20
2019-04-26T12:58:01.440Z,1.40
2019-04-26T13:03:05.998Z,1.80
2019-04-26T13:08:13.101Z,2.05
2019-04-26T13:13:34.227Z,2.00
2019-04-26T13:18:41.247Z,2.37
2019-04-26T13:23:42.725Z,1.95
2019-04-26T13:28:46.125Z,2.02
2019-04-26T13:33:49.507Z,1.87
2019-04-26T13:38:52.893Z,2.05
2019-04-26T13:43:57.200Z,1.47
2019-04-26T13:49:05.681Z,1.45
2019-04-26T13:54:09.076Z,1.42
2019-04-26T13:59:12.709Z,1.30
2019-04-26T14:04:16.153Z,1.60
2019-04-26T14:09:19.724Z,1.82
2019-04-26T14:14:23.111Z,1.82
2019-04-26T14:19:26.509Z,1.82
2019-04-26T14:24:40.584Z,1.50
2019-04-26T14:29:43.978Z,1.40
2019-04-26T14:34:47.364Z,0.98
2019-04-26T14:39:51.384Z,1.07
2019-04-26T14:44:55.863Z,0.70
2019-04-26T14:49:59.411Z,0.90
2019-04-26T14:55:04.563Z,1.10
2019-04-26T15:00:10.202Z,1.20
2019-04-26T15:05:15.410Z,1.10
2019-04-26T15:10:20.437Z,0.70
2019-04-26T15:15:26.723Z,0.70
2019-04-26T15:20:29.128Z,0.68
2019-04-26T15:25:33.582Z,0.80
2019-04-26T15:30:43.187Z,0.70
2019-04-26T15:35:42.948Z,1.00
2019-04-26T15:40:47.998Z,1.00
2019-04-26T15:45:53.277Z,1.00
2019-04-26T15:50:57.448Z,1.00
2019-04-26T15:56:02.465Z,1.20
2019-04-26T16:01:06.825Z,1.40
2019-04-26T16:06:12.646Z,1.30
2019-04-26T16:11:16.061Z,1.35
2019-04-26T16:16:20.583Z,2.00
2019-04-26T16:21:24.549Z,2.10
2019-04-26T16:26:27.964Z,2.00
2019-04-26T16:31:46.089Z,2.22
2019-04-26T16:36:49.737Z,1.92
2019-04-26T16:41:53.124Z,2.10
2019-04-26T16:47:01.479Z,1.85
2019-04-26T16:52:06.577Z,1.90
2019-04-26T16:57:11.476Z,2.10
2019-04-26T17:02:15.599Z,2.05
2019-04-26T17:07:22.021Z,2.00
2019-04-26T17:12:22.598Z,2.50
2019-04-26T17:17:27.191Z,2.70
2019-04-26T17:22:44.726Z,2.60
2019-04-26T17:27:40.290Z,1.70
2019-04-26T17:32:47.605Z,1.57
2019-04-26T17:37:50.300Z,1.72
2019-04-26T17:42:53.701Z,1.60
2019-04-26T17:47:57.082Z,1.65
2019-04-26T17:53:00.666Z,1.80
2019-04-26T17:58:11.849Z,1.70
2019-04-26T18:03:14.517Z,1.90
2019-04-26T18:08:33.659Z,1.80
2019-04-26T18:13:21.688Z,2.33
2019-04-26T18:18:29.129Z,1.87
2019-04-26T18:23:33.915Z,2.10
2019-04-26T18:28:37.397Z,1.90
2019-04-26T18:33:42.551Z,2.20
2019-04-26T18:38:48.661Z,2.25
2019-04-26T18:43:54.086Z,2.20
2019-04-26T18:48:56.191Z,2.17
2019-04-26T18:54:17.923Z,2.27
2019-04-26T18:59:23.303Z,3.50
2019-04-26T19:04:26.523Z,4.08
2019-04-26T19:09:31.395Z,3.35
2019-04-26T19:14:49.842Z,2.33
2019-04-26T19:20:09.091Z,2.50
2019-04-26T19:25:21.229Z,2.30
2019-04-26T19:30:21.450Z,2.35
2019-04-26T19:35:24.690Z,2.80
2019-04-26T19:40:28.150Z,3.20
2019-04-26T19:45:47.151Z,2.92
2019-04-26T19:50:58.197Z,3.45
2019-04-26T19:56:05.909Z,3.30
2019-04-26T20:01:09.306Z,3.62
2019-04-26T20:06:18.639Z,3.72
2019-04-26T20:11:18.733Z,4.17
2019-04-26T20:16:25.802Z,3.50
2019-04-26T20:21:28.012Z,3.37
2019-04-26T20:26:31.552Z,3.27
2019-04-26T20:31:37.652Z,3.42
2019-04-26T20:36:47.662Z,3.62
2019-04-26T20:41:47.201Z,3.65
2019-04-26T20:46:51.965Z,4.00
2019-04-26T20:51:55.398Z,3.87
2019-04-26T20:56:58.787Z,3.72
2019-04-26T21:02:07.528Z,4.10
2019-04-26T21:07:12.232Z,4.33
2019-04-26T21:12:15.816Z,4.40
2019-04-26T21:17:19.486Z,4.17
2019-04-26T21:22:28.455Z,4.37
2019-04-26T21:27:45.539Z,4.55
2019-04-26T21:32:59.678Z,4.58
2019-04-26T21:38:16.543Z,4.65
2019-04-26T21:43:20.000Z,5.15
2019-04-26T21:48:23.590Z,4.47
2019-04-26T21:53:29.702Z,5.15
2019-04-26T21:58:33.731Z,4.70
2019-04-26T22:03:37.459Z,4.72
2019-04-26T22:08:46.256Z,5.10
2019-04-26T22:14:06.068Z,5.15
2019-04-26T22:19:32.595Z,5.10
2019-04-26T22:24:36.251Z,5.15
2019-04-26T22:29:39.639Z,5.10
2019-04-26T22:34:46.188Z,5.03
2019-04-26T22:39:48.148Z,5.25
2019-04-26T22:45:10.406Z,4.85
2019-04-26T22:50:20.857Z,4.90
2019-04-26T22:55:24.045Z,5.53
2019-04-26T23:00:29.435Z,5.12
2019-04-26T23:05:35.645Z,4.97
2019-04-26T23:10:43.661Z,4.72
2019-04-26T23:15:48.693Z,4.45
2019-04-26T23:21:03.566Z,4.40
2019-04-26T23:26:07.703Z,4.90
2019-04-26T23:31:11.397Z,4.28
2019-04-26T23:36:18.429Z,4.58
2019-04-26T23:41:19.892Z,4.97
2019-04-26T23:46:25.984Z,4.22
2019-04-26T23:51:28.655Z,4.70
2019-04-26T23:56:33.476Z,4.87
